LY88 weather

Ponikve Airport
Užice, Zlatibor, Serbia

Public forecast

Using degrees Celsius for public forecast. Weather courtesy of forecast.io.

METAR (pilot weather report)

Closest report is Morava Airport, 38.8 nm (71.9 km) E. Retrieved 2019/06/25 09:30 UTC (0 seconds ago):

LYKV 250930Z 28003KT 190V360 9999 BKN037 26/19 Q1022 NOSIG

TAF (pilot weather forecast)

Closest forecast is Morava Airport, 38.8 nm (71.9 km) E. Retrieved 2019/06/25 06:00 UTC (3 hours ago):

TAF LYKV 250500Z 2506/2606 34005KT 9999 SCT040 TX28/2513Z TN19/2604Z TEMPO 2510/2519 VRB15G30KT 3000 TSRA SCT027CB SCT033 TEMPO 2601/2605 3000 BR